sensor_id;sensor_type;location;lat;lon;timestamp;pressure;altitude;pressure_sealevel;temperature;humidity
51299;BME280;37382;45.192;9.790;2023-05-15T00:02:02;100671.66;;;12.51;100.00
51299;BME280;37382;45.192;9.790;2023-05-15T00:04:29;100669.16;;;12.42;100.00
51299;BME280;37382;45.192;9.790;2023-05-15T00:06:57;100671.28;;;12.34;100.00
51299;BME280;37382;45.192;9.790;2023-05-15T00:09:24;100666.84;;;12.19;100.00
51299;BME280;37382;45.192;9.790;2023-05-15T00:11:52;100655.75;;;12.27;100.00
51299;BME280;37382;45.192;9.790;2023-05-15T00:14:20;100646.72;;;12.47;100.00
51299;BME280;37382;45.192;9.790;2023-05-15T00:16:48;100647.47;;;12.68;100.00
51299;BME280;37382;45.192;9.790;2023-05-15T00:19:15;100645.59;;;12.61;100.00
51299;BME280;37382;45.192;9.790;2023-05-15T00:21:43;100636.00;;;12.45;100.00
51299;BME280;37382;45.192;9.790;2023-05-15T00:24:10;100645.66;;;12.35;100.00
51299;BME280;37382;45.192;9.790;2023-05-15T00:26:37;100649.66;;;12.25;100.00
51299;BME280;37382;45.192;9.790;2023-05-15T00:29:05;100648.41;;;12.21;100.00
51299;BME280;37382;45.192;9.790;2023-05-15T00:31:32;100638.31;;;12.35;100.00
51299;BME280;37382;45.192;9.790;2023-05-15T00:34:00;100634.31;;;12.38;100.00
51299;BME280;37382;45.192;9.790;2023-05-15T00:36:28;100634.16;;;12.13;100.00
51299;BME280;37382;45.192;9.790;2023-05-15T00:38:56;100638.34;;;12.08;100.00
51299;BME280;37382;45.192;9.790;2023-05-15T00:41:24;100631.59;;;12.31;100.00
51299;BME280;37382;45.192;9.790;2023-05-15T00:43:55;100633.28;;;12.45;100.00
51299;BME280;37382;45.192;9.790;2023-05-15T00:46:23;100625.69;;;12.54;100.00
51299;BME280;37382;45.192;9.790;2023-05-15T00:48:52;100620.47;;;12.39;100.00
51299;BME280;37382;45.192;9.790;2023-05-15T00:51:19;100622.56;;;12.44;100.00
51299;BME280;37382;45.192;9.790;2023-05-15T00:53:48;100619.66;;;12.32;100.00
51299;BME280;37382;45.192;9.790;2023-05-15T00:56:19;100625.34;;;12.10;100.00
51299;BME280;37382;45.192;9.790;2023-05-15T00:58:48;100627.19;;;12.37;100.00
51299;BME280;37382;45.192;9.790;2023-05-15T01:01:17;100618.94;;;12.70;100.00
51299;BME280;37382;45.192;9.790;2023-05-15T01:03:45;100614.69;;;12.74;100.00
51299;BME280;37382;45.192;9.790;2023-05-15T01:06:13;100620.00;;;12.56;100.00
51299;BME280;37382;45.192;9.790;2023-05-15T01:08:48;100610.34;;;12.60;100.00
51299;BME280;37382;45.192;9.790;2023-05-15T01:11:16;100607.97;;;12.84;100.00
51299;BME280;37382;45.192;9.790;2023-05-15T01:13:46;100599.16;;;12.81;100.00
51299;BME280;37382;45.192;9.790;2023-05-15T01:16:13;100598.25;;;12.94;100.00
51299;BME280;37382;45.192;9.790;2023-05-15T01:18:41;100595.53;;;12.94;100.00
51299;BME280;37382;45.192;9.790;2023-05-15T01:29:11;100592.31;;;13.04;100.00
51299;BME280;37382;45.192;9.790;2023-05-15T01:31:42;100589.09;;;12.82;100.00
51299;BME280;37382;45.192;9.790;2023-05-15T01:34:13;100586.97;;;12.77;100.00
51299;BME280;37382;45.192;9.790;2023-05-15T01:36:50;100589.66;;;12.91;100.00
51299;BME280;37382;45.192;9.790;2023-05-15T01:39:20;100577.34;;;13.13;100.00
51299;BME280;37382;45.192;9.790;2023-05-15T01:42:06;100587.19;;;13.21;100.00
51299;BME280;37382;45.192;9.790;2023-05-15T01:44:43;100581.47;;;13.29;100.00
51299;BME280;37382;45.192;9.790;2023-05-15T01:47:13;100576.19;;;12.96;100.00
51299;BME280;37382;45.192;9.790;2023-05-15T01:49:43;100580.25;;;12.87;100.00
51299;BME280;37382;45.192;9.790;2023-05-15T01:52:16;100574.84;;;12.73;100.00
51299;BME280;37382;45.192;9.790;2023-05-15T01:54:45;100575.09;;;12.58;100.00
51299;BME280;37382;45.192;9.790;2023-05-15T01:57:15;100578.06;;;12.50;100.00
51299;BME280;37382;45.192;9.790;2023-05-15T01:59:44;100575.03;;;12.72;100.00
51299;BME280;37382;45.192;9.790;2023-05-15T02:02:12;100561.34;;;12.78;100.00
51299;BME280;37382;45.192;9.790;2023-05-15T02:04:42;100571.97;;;13.00;100.00
51299;BME280;37382;45.192;9.790;2023-05-15T02:07:12;100580.13;;;13.07;100.00
51299;BME280;37382;45.192;9.790;2023-05-15T02:09:42;100573.53;;;12.82;100.00
51299;BME280;37382;45.192;9.790;2023-05-15T02:12:10;100574.41;;;12.76;100.00
51299;BME280;37382;45.192;9.790;2023-05-15T02:14:39;100573.63;;;12.62;100.00
51299;BME280;37382;45.192;9.790;2023-05-15T02:17:07;100578.72;;;12.45;100.00
51299;BME280;37382;45.192;9.790;2023-05-15T02:19:35;100580.19;;;12.41;100.00
51299;BME280;37382;45.192;9.790;2023-05-15T02:22:05;100579.75;;;12.44;100.00
51299;BME280;37382;45.192;9.790;2023-05-15T02:24:33;100581.47;;;12.19;100.00
51299;BME280;37382;45.192;9.790;2023-05-15T02:27:12;100581.03;;;12.28;100.00
51299;BME280;37382;45.192;9.790;2023-05-15T02:35:53;100573.28;;;12.32;100.00
51299;BME280;37382;45.192;9.790;2023-05-15T02:38:46;100572.91;;;12.15;100.00
51299;BME280;37382;45.192;9.790;2023-05-15T02:41:15;100566.13;;;12.31;100.00
51299;BME280;37382;45.192;9.790;2023-05-15T02:43:44;100569.28;;;12.35;100.00
51299;BME280;37382;45.192;9.790;2023-05-15T02:46:14;100568.50;;;12.14;100.00
51299;BME280;37382;45.192;9.790;2023-05-15T02:48:42;100567.44;;;12.15;100.00
51299;BME280;37382;45.192;9.790;2023-05-15T02:51:12;100566.38;;;12.16;100.00
51299;BME280;37382;45.192;9.790;2023-05-15T02:53:41;100568.91;;;12.24;100.00
51299;BME280;37382;45.192;9.790;2023-05-15T02:56:08;100561.31;;;12.26;100.00
51299;BME280;37382;45.192;9.790;2023-05-15T02:58:37;100570.56;;;12.32;100.00
51299;BME280;37382;45.192;9.790;2023-05-15T03:01:05;100570.75;;;12.24;100.00
51299;BME280;37382;45.192;9.790;2023-05-15T03:03:34;100561.56;;;12.12;100.00
51299;BME280;37382;45.192;9.790;2023-05-15T03:06:01;100556.91;;;12.32;100.00
51299;BME280;37382;45.192;9.790;2023-05-15T03:08:28;100561.25;;;12.46;100.00
51299;BME280;37382;45.192;9.790;2023-05-15T03:10:56;100561.41;;;12.72;100.00
51299;BME280;37382;45.192;9.790;2023-05-15T03:13:24;100557.50;;;12.48;100.00
51299;BME280;37382;45.192;9.790;2023-05-15T03:15:52;100559.97;;;12.56;100.00
51299;BME280;37382;45.192;9.790;2023-05-15T03:18:19;100567.34;;;12.55;100.00
51299;BME280;37382;45.192;9.790;2023-05-15T03:20:47;100563.34;;;12.58;100.00
51299;BME280;37382;45.192;9.790;2023-05-15T03:23:15;100559.38;;;12.54;100.00
51299;BME280;37382;45.192;9.790;2023-05-15T03:25:43;100558.06;;;12.63;100.00
51299;BME280;37382;45.192;9.790;2023-05-15T03:28:11;100559.53;;;12.59;100.00
51299;BME280;37382;45.192;9.790;2023-05-15T03:30:43;100556.63;;;12.54;100.00
51299;BME280;37382;45.192;9.790;2023-05-15T03:33:11;100559.19;;;12.42;100.00
51299;BME280;37382;45.192;9.790;2023-05-15T03:35:38;100560.66;;;12.44;100.00
51299;BME280;37382;45.192;9.790;2023-05-15T03:38:05;100562.97;;;12.41;100.00
51299;BME280;37382;45.192;9.790;2023-05-15T03:40:33;100569.09;;;12.23;100.00
51299;BME280;37382;45.192;9.790;2023-05-15T03:43:00;100567.63;;;12.20;100.00
51299;BME280;37382;45.192;9.790;2023-05-15T03:45:27;100571.00;;;12.02;100.00
51299;BME280;37382;45.192;9.790;2023-05-15T03:47:55;100570.38;;;11.93;100.00
51299;BME280;37382;45.192;9.790;2023-05-15T03:50:23;100561.78;;;11.77;100.00
51299;BME280;37382;45.192;9.790;2023-05-15T03:52:51;100563.28;;;11.92;100.00
51299;BME280;37382;45.192;9.790;2023-05-15T03:55:19;100571.00;;;12.16;100.00
51299;BME280;37382;45.192;9.790;2023-05-15T03:57:47;100569.53;;;12.00;100.00
51299;BME280;37382;45.192;9.790;2023-05-15T04:00:14;100567.88;;;12.05;100.00
51299;BME280;37382;45.192;9.790;2023-05-15T04:02:47;100568.50;;;12.01;100.00
51299;BME280;37382;45.192;9.790;2023-05-15T04:05:14;100566.00;;;12.06;100.00
51299;BME280;37382;45.192;9.790;2023-05-15T04:07:42;100562.63;;;12.10;100.00
51299;BME280;37382;45.192;9.790;2023-05-15T04:10:10;100573.53;;;11.64;100.00
51299;BME280;37382;45.192;9.790;2023-05-15T04:12:37;100570.38;;;12.14;100.00
51299;BME280;37382;45.192;9.790;2023-05-15T04:15:16;100565.13;;;12.05;100.00
51299;BME280;37382;45.192;9.790;2023-05-15T04:17:45;100559.44;;;12.20;100.00
51299;BME280;37382;45.192;9.790;2023-05-15T04:20:15;100555.47;;;12.03;100.00
51299;BME280;37382;45.192;9.790;2023-05-15T04:22:43;100557.81;;;12.06;100.00
51299;BME280;37382;45.192;9.790;2023-05-15T04:25:12;100562.00;;;11.68;100.00
51299;BME280;37382;45.192;9.790;2023-05-15T04:27:41;100559.25;;;11.75;100.00
51299;BME280;37382;45.192;9.790;2023-05-15T04:30:10;100556.31;;;11.77;100.00
51299;BME280;37382;45.192;9.790;2023-05-15T04:32:39;100566.41;;;11.56;100.00
51299;BME280;37382;45.192;9.790;2023-05-15T04:35:08;100564.91;;;11.40;100.00
51299;BME280;37382;45.192;9.790;2023-05-15T04:37:39;100560.94;;;11.56;100.00
51299;BME280;37382;45.192;9.790;2023-05-15T04:40:08;100559.69;;;11.79;100.00
51299;BME280;37382;45.192;9.790;2023-05-15T04:42:35;100563.88;;;11.88;100.00
51299;BME280;37382;45.192;9.790;2023-05-15T04:45:06;100572.28;;;12.06;100.00
51299;BME280;37382;45.192;9.790;2023-05-15T04:47:35;100566.19;;;11.98;100.00
51299;BME280;37382;45.192;9.790;2023-05-15T04:50:03;100572.03;;;12.15;100.00
51299;BME280;37382;45.192;9.790;2023-05-15T04:52:30;100572.06;;;12.08;100.00
51299;BME280;37382;45.192;9.790;2023-05-15T04:54:58;100573.13;;;12.00;100.00
51299;BME280;37382;45.192;9.790;2023-05-15T04:57:26;100574.56;;;12.16;100.00
51299;BME280;37382;45.192;9.790;2023-05-15T04:59:53;100583.34;;;12.38;100.00
51299;BME280;37382;45.192;9.790;2023-05-15T05:02:22;100577.16;;;12.63;100.00
51299;BME280;37382;45.192;9.790;2023-05-15T05:04:49;100581.59;;;12.64;100.00
51299;BME280;37382;45.192;9.790;2023-05-15T05:07:17;100581.34;;;12.72;100.00
51299;BME280;37382;45.192;9.790;2023-05-15T05:09:45;100591.28;;;12.98;100.00
51299;BME280;37382;45.192;9.790;2023-05-15T05:12:13;100586.25;;;13.02;100.00
51299;BME280;37382;45.192;9.790;2023-05-15T05:14:41;100585.66;;;13.32;100.00
51299;BME280;37382;45.192;9.790;2023-05-15T05:17:10;100583.03;;;13.50;100.00
51299;BME280;37382;45.192;9.790;2023-05-15T05:19:38;100576.00;;;13.36;100.00
51299;BME280;37382;45.192;9.790;2023-05-15T05:22:06;100590.06;;;13.33;100.00
51299;BME280;37382;45.192;9.790;2023-05-15T05:24:34;100588.28;;;13.13;100.00
51299;BME280;37382;45.192;9.790;2023-05-15T05:27:04;100594.03;;;13.44;100.00
51299;BME280;37382;45.192;9.790;2023-05-15T05:29:32;100583.09;;;13.44;100.00
51299;BME280;37382;45.192;9.790;2023-05-15T05:31:59;100581.59;;;13.48;100.00
51299;BME280;37382;45.192;9.790;2023-05-15T05:34:27;100585.34;;;13.15;100.00
51299;BME280;37382;45.192;9.790;2023-05-15T05:36:55;100580.03;;;12.81;100.00
51299;BME280;37382;45.192;9.790;2023-05-15T05:39:22;100582.88;;;13.07;100.00
51299;BME280;37382;45.192;9.790;2023-05-15T05:41:50;100582.94;;;13.39;100.00
51299;BME280;37382;45.192;9.790;2023-05-15T05:44:17;100585.88;;;12.92;100.00
51299;BME280;37382;45.192;9.790;2023-05-15T05:46:45;100585.19;;;13.03;100.00
51299;BME280;37382;45.192;9.790;2023-05-15T05:49:12;100583.53;;;13.41;100.00
51299;BME280;37382;45.192;9.790;2023-05-15T05:51:40;100579.91;;;13.47;100.00
51299;BME280;37382;45.192;9.790;2023-05-15T05:54:07;100581.81;;;13.46;100.00
51299;BME280;37382;45.192;9.790;2023-05-15T05:56:35;100580.66;;;13.61;100.00
51299;BME280;37382;45.192;9.790;2023-05-15T05:59:03;100584.78;;;13.70;100.00
51299;BME280;37382;45.192;9.790;2023-05-15T06:01:31;100586.25;;;13.73;100.00
51299;BME280;37382;45.192;9.790;2023-05-15T06:03:59;100579.81;;;13.85;100.00
51299;BME280;37382;45.192;9.790;2023-05-15T06:06:28;100592.41;;;13.93;100.00
51299;BME280;37382;45.192;9.790;2023-05-15T06:08:56;100589.78;;;13.48;100.00
51299;BME280;37382;45.192;9.790;2023-05-15T06:11:23;100578.13;;;13.59;100.00
51299;BME280;37382;45.192;9.790;2023-05-15T06:13:52;100584.34;;;13.73;100.00
51299;BME280;37382;45.192;9.790;2023-05-15T06:16:20;100589.09;;;13.84;100.00
51299;BME280;37382;45.192;9.790;2023-05-15T06:18:47;100581.13;;;13.83;100.00
51299;BME280;37382;45.192;9.790;2023-05-15T06:21:15;100578.91;;;13.92;100.00
51299;BME280;37382;45.192;9.790;2023-05-15T06:23:42;100572.41;;;13.67;100.00
51299;BME280;37382;45.192;9.790;2023-05-15T06:26:10;100571.63;;;13.85;100.00
51299;BME280;37382;45.192;9.790;2023-05-15T06:28:38;100568.88;;;13.85;100.00
51299;BME280;37382;45.192;9.790;2023-05-15T06:31:05;100562.66;;;13.78;100.00
51299;BME280;37382;45.192;9.790;2023-05-15T06:33:33;100563.94;;;13.76;100.00
51299;BME280;37382;45.192;9.790;2023-05-15T06:36:00;100562.41;;;14.05;100.00
51299;BME280;37382;45.192;9.790;2023-05-15T06:38:28;100562.41;;;13.55;100.00
51299;BME280;37382;45.192;9.790;2023-05-15T06:40:55;100568.56;;;13.75;100.00
51299;BME280;37382;45.192;9.790;2023-05-15T06:43:23;100556.69;;;13.31;100.00
51299;BME280;37382;45.192;9.790;2023-05-15T06:45:50;100564.72;;;13.19;100.00
51299;BME280;37382;45.192;9.790;2023-05-15T06:48:17;100559.63;;;13.29;100.00
51299;BME280;37382;45.192;9.790;2023-05-15T06:50:45;100562.97;;;13.88;100.00
51299;BME280;37382;45.192;9.790;2023-05-15T06:53:12;100564.31;;;14.04;100.00
51299;BME280;37382;45.192;9.790;2023-05-15T06:55:40;100567.38;;;13.90;100.00
51299;BME280;37382;45.192;9.790;2023-05-15T06:58:08;100560.91;;;14.46;100.00
51299;BME280;37382;45.192;9.790;2023-05-15T07:00:36;100558.25;;;14.39;100.00
51299;BME280;37382;45.192;9.790;2023-05-15T07:03:03;100564.84;;;14.75;100.00
51299;BME280;37382;45.192;9.790;2023-05-15T07:05:31;100566.63;;;14.63;100.00
51299;BME280;37382;45.192;9.790;2023-05-15T07:07:59;100568.84;;;14.54;100.00
51299;BME280;37382;45.192;9.790;2023-05-15T07:10:26;100565.63;;;14.94;100.00
51299;BME280;37382;45.192;9.790;2023-05-15T07:12:54;100563.78;;;15.07;100.00
51299;BME280;37382;45.192;9.790;2023-05-15T07:15:22;100563.13;;;15.23;100.00
51299;BME280;37382;45.192;9.790;2023-05-15T07:17:49;100558.44;;;14.63;100.00
51299;BME280;37382;45.192;9.790;2023-05-15T07:20:18;100559.03;;;14.47;100.00
51299;BME280;37382;45.192;9.790;2023-05-15T07:22:45;100566.25;;;13.97;100.00
51299;BME280;37382;45.192;9.790;2023-05-15T07:25:24;100566.69;;;14.38;100.00
51299;BME280;37382;45.192;9.790;2023-05-15T07:27:52;100562.72;;;14.34;100.00
51299;BME280;37382;45.192;9.790;2023-05-15T07:30:20;100570.56;;;14.30;100.00
51299;BME280;37382;45.192;9.790;2023-05-15T07:32:47;100577.13;;;14.66;100.00
51299;BME280;37382;45.192;9.790;2023-05-15T07:35:15;100576.75;;;14.81;100.00
51299;BME280;37382;45.192;9.790;2023-05-15T07:37:42;100583.00;;;14.70;100.00
51299;BME280;37382;45.192;9.790;2023-05-15T07:40:10;100566.22;;;15.69;100.00
51299;BME280;37382;45.192;9.790;2023-05-15T07:42:42;100564.34;;;16.17;100.00
51299;BME280;37382;45.192;9.790;2023-05-15T07:45:10;100566.16;;;15.99;100.00
51299;BME280;37382;45.192;9.790;2023-05-15T07:47:43;100563.53;;;16.05;100.00
51299;BME280;37382;45.192;9.790;2023-05-15T07:50:10;100572.59;;;15.51;100.00
51299;BME280;37382;45.192;9.790;2023-05-15T07:52:38;100569.16;;;15.44;100.00
51299;BME280;37382;45.192;9.790;2023-05-15T07:55:07;100569.72;;;16.00;100.00
51299;BME280;37382;45.192;9.790;2023-05-15T07:57:35;100553.03;;;16.25;100.00
51299;BME280;37382;45.192;9.790;2023-05-15T08:00:03;100553.97;;;15.95;100.00
51299;BME280;37382;45.192;9.790;2023-05-15T08:02:40;100551.44;;;14.67;100.00
51299;BME280;37382;45.192;9.790;2023-05-15T08:05:08;100539.44;;;14.68;100.00
51299;BME280;37382;45.192;9.790;2023-05-15T08:07:36;100542.84;;;14.64;100.00
51299;BME280;37382;45.192;9.790;2023-05-15T08:10:05;100545.13;;;14.48;100.00
51299;BME280;37382;45.192;9.790;2023-05-15T08:12:33;100547.41;;;14.70;100.00
51299;BME280;37382;45.192;9.790;2023-05-15T08:15:01;100537.78;;;14.23;100.00
51299;BME280;37382;45.192;9.790;2023-05-15T08:17:28;100545.97;;;14.67;100.00
51299;BME280;37382;45.192;9.790;2023-05-15T08:22:26;100536.41;;;15.61;100.00
51299;BME280;37382;45.192;9.790;2023-05-15T08:24:53;100535.03;;;16.06;100.00
51299;BME280;37382;45.192;9.790;2023-05-15T08:27:21;100529.03;;;15.97;100.00
51299;BME280;37382;45.192;9.790;2023-05-15T08:29:48;100519.28;;;16.01;100.00
51299;BME280;37382;45.192;9.790;2023-05-15T08:32:16;100528.09;;;15.25;100.00
51299;BME280;37382;45.192;9.790;2023-05-15T08:34:44;100525.06;;;15.03;100.00
51299;BME280;37382;45.192;9.790;2023-05-15T08:37:11;100535.09;;;15.09;100.00
51299;BME280;37382;45.192;9.790;2023-05-15T08:39:39;100528.44;;;15.83;100.00
51299;BME280;37382;45.192;9.790;2023-05-15T08:44:36;100533.06;;;16.42;100.00
51299;BME280;37382;45.192;9.790;2023-05-15T08:47:05;100534.00;;;16.47;100.00
51299;BME280;37382;45.192;9.790;2023-05-15T08:50:06;100523.59;;;16.61;100.00
51299;BME280;37382;45.192;9.790;2023-05-15T08:52:35;100534.28;;;16.75;100.00
51299;BME280;37382;45.192;9.790;2023-05-15T08:55:02;100533.00;;;17.06;100.00
51299;BME280;37382;45.192;9.790;2023-05-15T08:57:32;100538.84;;;17.10;100.00
51299;BME280;37382;45.192;9.790;2023-05-15T09:00:02;100535.59;;;17.13;100.00
51299;BME280;37382;45.192;9.790;2023-05-15T09:02:37;100538.75;;;17.04;100.00
51299;BME280;37382;45.192;9.790;2023-05-15T09:05:06;100530.06;;;16.96;100.00
51299;BME280;37382;45.192;9.790;2023-05-15T09:07:35;100525.91;;;17.39;100.00
51299;BME280;37382;45.192;9.790;2023-05-15T09:10:05;100522.00;;;17.35;100.00
51299;BME280;37382;45.192;9.790;2023-05-15T09:12:38;100526.16;;;17.54;100.00
51299;BME280;37382;45.192;9.790;2023-05-15T09:15:18;100537.50;;;17.75;100.00
51299;BME280;37382;45.192;9.790;2023-05-15T09:17:51;100524.41;;;17.65;100.00
51299;BME280;37382;45.192;9.790;2023-05-15T09:20:32;100522.88;;;17.23;100.00
51299;BME280;37382;45.192;9.790;2023-05-15T09:23:04;100520.13;;;17.23;100.00
51299;BME280;37382;45.192;9.790;2023-05-15T09:25:37;100525.22;;;17.15;100.00
51299;BME280;37382;45.192;9.790;2023-05-15T09:28:10;100525.09;;;17.10;100.00
51299;BME280;37382;45.192;9.790;2023-05-15T09:30:40;100527.31;;;17.58;100.00
51299;BME280;37382;45.192;9.790;2023-05-15T09:33:08;100517.84;;;18.00;100.00
51299;BME280;37382;45.192;9.790;2023-05-15T09:35:37;100523.75;;;18.31;100.00
51299;BME280;37382;45.192;9.790;2023-05-15T09:38:10;100517.13;;;18.10;100.00
51299;BME280;37382;45.192;9.790;2023-05-15T09:40:38;100523.75;;;17.92;100.00
51299;BME280;37382;45.192;9.790;2023-05-15T09:43:09;100519.88;;;18.10;100.00
51299;BME280;37382;45.192;9.790;2023-05-15T09:45:37;100519.16;;;17.98;100.00
51299;BME280;37382;45.192;9.790;2023-05-15T09:48:06;100521.59;;;17.94;100.00
51299;BME280;37382;45.192;9.790;2023-05-15T09:50:38;100525.28;;;18.22;100.00
51299;BME280;37382;45.192;9.790;2023-05-15T09:53:10;100520.81;;;18.38;100.00
51299;BME280;37382;45.192;9.790;2023-05-15T09:55:40;100515.34;;;18.21;100.00
51299;BME280;37382;45.192;9.790;2023-05-15T09:58:11;100512.53;;;18.16;100.00
51299;BME280;37382;45.192;9.790;2023-05-15T10:00:40;100515.31;;;18.16;100.00
51299;BME280;37382;45.192;9.790;2023-05-15T10:03:17;100511.88;;;18.08;100.00
51299;BME280;37382;45.192;9.790;2023-05-15T10:05:46;100507.25;;;18.31;100.00
51299;BME280;37382;45.192;9.790;2023-05-15T10:08:15;100511.47;;;18.61;100.00
51299;BME280;37382;45.192;9.790;2023-05-15T10:10:44;100516.97;;;18.00;100.00
51299;BME280;37382;45.192;9.790;2023-05-15T10:13:12;100514.28;;;18.22;100.00
51299;BME280;37382;45.192;9.790;2023-05-15T10:15:41;100520.63;;;18.44;100.00
51299;BME280;37382;45.192;9.790;2023-05-15T10:18:09;100507.88;;;18.82;100.00
51299;BME280;37382;45.192;9.790;2023-05-15T10:20:38;100514.22;;;19.05;100.00
51299;BME280;37382;45.192;9.790;2023-05-15T10:23:08;100509.81;;;19.09;100.00
51299;BME280;37382;45.192;9.790;2023-05-15T10:25:59;100509.78;;;19.04;100.00
51299;BME280;37382;45.192;9.790;2023-05-15T10:28:29;100501.81;;;18.58;100.00
51299;BME280;37382;45.192;9.790;2023-05-15T10:30:59;100504.81;;;19.06;100.00
51299;BME280;37382;45.192;9.790;2023-05-15T10:33:28;100502.50;;;18.93;100.00
51299;BME280;37382;45.192;9.790;2023-05-15T10:35:57;100501.19;;;19.28;100.00
51299;BME280;37382;45.192;9.790;2023-05-15T10:38:26;100502.50;;;18.93;100.00
51299;BME280;37382;45.192;9.790;2023-05-15T10:40:56;100482.69;;;19.23;100.00
51299;BME280;37382;45.192;9.790;2023-05-15T10:43:44;100483.06;;;19.37;100.00
51299;BME280;37382;45.192;9.790;2023-05-15T10:46:14;100476.72;;;19.74;100.00
51299;BME280;37382;45.192;9.790;2023-05-15T10:48:42;100478.88;;;19.99;100.00
51299;BME280;37382;45.192;9.790;2023-05-15T10:51:18;100473.44;;;20.20;100.00
51299;BME280;37382;45.192;9.790;2023-05-15T10:53:50;100464.28;;;20.09;100.00
51299;BME280;37382;45.192;9.790;2023-05-15T10:56:19;100457.94;;;20.19;100.00
51299;BME280;37382;45.192;9.790;2023-05-15T10:58:51;100466.03;;;20.31;100.00
51299;BME280;37382;45.192;9.790;2023-05-15T11:01:28;100468.09;;;20.66;100.00
51299;BME280;37382;45.192;9.790;2023-05-15T11:04:12;100467.91;;;20.99;100.00
51299;BME280;37382;45.192;9.790;2023-05-15T11:06:45;100461.81;;;20.86;100.00
51299;BME280;37382;45.192;9.790;2023-05-15T11:09:56;100460.13;;;20.70;100.00
51299;BME280;37382;45.192;9.790;2023-05-15T11:12:15;100451.63;;;21.07;100.00
51299;BME280;37382;45.192;9.790;2023-05-15T11:18:01;100441.38;;;21.49;100.00
51299;BME280;37382;45.192;9.790;2023-05-15T11:20:38;100435.59;;;21.20;100.00
51299;BME280;37382;45.192;9.790;2023-05-15T11:23:06;100430.84;;;21.25;100.00
51299;BME280;37382;45.192;9.790;2023-05-15T11:25:35;100438.47;;;20.51;100.00
51299;BME280;37382;45.192;9.790;2023-05-15T11:28:03;100440.78;;;20.80;100.00
51299;BME280;37382;45.192;9.790;2023-05-15T11:30:35;100434.19;;;21.32;100.00
51299;BME280;37382;45.192;9.790;2023-05-15T11:33:08;100434.69;;;21.76;100.00
51299;BME280;37382;45.192;9.790;2023-05-15T11:35:38;100425.25;;;21.97;100.00
51299;BME280;37382;45.192;9.790;2023-05-15T11:40:56;100420.03;;;21.75;100.00
51299;BME280;37382;45.192;9.790;2023-05-15T11:48:40;100422.44;;;22.68;100.00
51299;BME280;37382;45.192;9.790;2023-05-15T11:51:23;100434.47;;;22.98;100.00
51299;BME280;37382;45.192;9.790;2023-05-15T11:53:53;100430.91;;;22.87;100.00
51299;BME280;37382;45.192;9.790;2023-05-15T11:56:25;100437.53;;;22.96;100.00
51299;BME280;37382;45.192;9.790;2023-05-15T11:58:56;100429.97;;;23.02;100.00
51299;BME280;37382;45.192;9.790;2023-05-15T12:01:24;100434.38;;;23.08;100.00
51299;BME280;37382;45.192;9.790;2023-05-15T12:03:52;100418.13;;;23.31;100.00
51299;BME280;37382;45.192;9.790;2023-05-15T12:06:21;100420.84;;;22.56;100.00
51299;BME280;37382;45.192;9.790;2023-05-15T12:08:52;100406.75;;;22.92;100.00
51299;BME280;37382;45.192;9.790;2023-05-15T12:11:21;100415.03;;;22.58;100.00
51299;BME280;37382;45.192;9.790;2023-05-15T12:13:53;100411.31;;;22.23;100.00
51299;BME280;37382;45.192;9.790;2023-05-15T12:16:24;100423.69;;;22.41;100.00
51299;BME280;37382;45.192;9.790;2023-05-15T12:18:52;100409.47;;;23.37;100.00
51299;BME280;37382;45.192;9.790;2023-05-15T12:21:20;100416.19;;;23.60;100.00
51299;BME280;37382;45.192;9.790;2023-05-15T12:23:51;100410.03;;;23.63;100.00
51299;BME280;37382;45.192;9.790;2023-05-15T12:26:33;100407.25;;;23.93;100.00
51299;BME280;37382;45.192;9.790;2023-05-15T12:29:02;100418.72;;;23.86;100.00
51299;BME280;37382;45.192;9.790;2023-05-15T12:31:30;100416.34;;;24.23;100.00
51299;BME280;37382;45.192;9.790;2023-05-15T12:34:00;100409.75;;;24.57;100.00
51299;BME280;37382;45.192;9.790;2023-05-15T12:36:28;100417.16;;;24.85;100.00
51299;BME280;37382;45.192;9.790;2023-05-15T12:38:57;100413.22;;;24.48;100.00
51299;BME280;37382;45.192;9.790;2023-05-15T12:41:31;100412.41;;;24.24;100.00
51299;BME280;37382;45.192;9.790;2023-05-15T12:43:59;100420.94;;;24.08;100.00
51299;BME280;37382;45.192;9.790;2023-05-15T12:46:30;100416.75;;;24.35;100.00
51299;BME280;37382;45.192;9.790;2023-05-15T12:48:59;100412.06;;;24.30;100.00
51299;BME280;37382;45.192;9.790;2023-05-15T12:51:26;100411.53;;;24.72;100.00
51299;BME280;37382;45.192;9.790;2023-05-15T12:53:56;100415.75;;;24.26;100.00
51299;BME280;37382;45.192;9.790;2023-05-15T12:56:28;100413.69;;;24.94;100.00
51299;BME280;37382;45.192;9.790;2023-05-15T12:59:25;100407.91;;;24.90;100.00
51299;BME280;37382;45.192;9.790;2023-05-15T13:01:53;100420.28;;;25.50;100.00
51299;BME280;37382;45.192;9.790;2023-05-15T13:04:20;100409.34;;;25.20;100.00
51299;BME280;37382;45.192;9.790;2023-05-15T13:06:48;100406.44;;;25.31;100.00
51299;BME280;37382;45.192;9.790;2023-05-15T13:09:23;100400.13;;;26.27;100.00
51299;BME280;37382;45.192;9.790;2023-05-15T13:11:56;100394.94;;;25.93;95.89
51299;BME280;37382;45.192;9.790;2023-05-15T13:14:23;100397.72;;;25.93;93.68
51299;BME280;37382;45.192;9.790;2023-05-15T13:16:58;100387.06;;;25.53;96.11
51299;BME280;37382;45.192;9.790;2023-05-15T13:19:27;100385.88;;;25.73;91.73
51299;BME280;37382;45.192;9.790;2023-05-15T13:21:55;100385.13;;;25.21;93.22
51299;BME280;37382;45.192;9.790;2023-05-15T13:24:22;100381.91;;;25.14;93.15